Time;durP1;ratioP1;P1;durP2;ratioP2;P2;SDS_P1;SDS_P2;PMS_P1;PMS_P2;Temp;Humidity;BMP_temperature;BMP_pressure;BME280_temperature;BME280_humidity;BME280_pressure;Samples;Min_cycle;Max_cycle;Signal;HPM_P1;HPM_P2
2023/01/07 00:00:13;;;;;;;19.67;9.57;;;7.10;99.90;;;;;;7407124;19;19915;-73
2023/01/07 00:02:42;;;;;;;20.00;9.68;;;7.10;99.90;;;;;;7405347;19;19922;-73
2023/01/07 00:05:12;;;;;;;18.58;10.88;;;7.00;99.90;;;;;;7404875;19;19919;-74
2023/01/07 00:07:44;;;;;;;16.60;9.52;;;7.10;99.90;;;;;;7406561;19;19926;-72
2023/01/07 00:10:13;;;;;;;20.67;10.18;;;7.20;99.90;;;;;;7409197;19;19926;-73
2023/01/07 00:12:42;;;;;;;19.70;10.00;;;7.20;99.90;;;;;;7404243;19;19919;-72
2023/01/07 00:15:11;;;;;;;20.33;10.70;;;7.20;99.90;;;;;;7406515;19;19930;-73
2023/01/07 00:17:41;;;;;;;18.02;9.82;;;9.20;99.90;;;;;;7405363;19;19919;-73
2023/01/07 00:20:21;;;;;;;17.08;9.57;;;7.50;99.90;;;;;;7408326;19;19990;-73
2023/01/07 00:22:54;;;;;;;18.52;10.45;;;7.20;99.90;;;;;;7404434;19;19910;-72
2023/01/07 00:25:23;;;;;;;19.23;10.57;;;7.20;99.90;;;;;;7405177;19;19934;-73
2023/01/07 00:27:53;;;;;;;18.85;9.70;;;7.20;99.90;;;;;;7405598;19;19947;-73
2023/01/07 00:30:22;;;;;;;19.30;9.82;;;7.60;99.90;;;;;;7408501;19;19935;-73
2023/01/07 00:33:03;;;;;;;18.02;9.55;;;7.50;99.90;;;;;;7404151;19;19921;-73
2023/01/07 00:35:35;;;;;;;17.20;8.73;;;7.50;99.90;;;;;;7403501;19;19926;-73
2023/01/07 00:38:07;;;;;;;15.38;8.88;;;7.50;99.90;;;;;;7402850;19;20261;-73
2023/01/07 00:40:36;;;;;;;17.83;10.27;;;7.60;99.90;;;;;;7403486;19;19986;-73
2023/01/07 00:43:06;;;;;;;17.67;9.90;;;7.60;99.90;;;;;;7403549;19;19911;-73
2023/01/07 00:45:38;;;;;;;20.00;10.35;;;7.60;99.90;;;;;;7404765;19;19962;-73
2023/01/07 00:48:08;;;;;;;17.10;10.05;;;7.70;99.90;;;;;;7402899;19;19926;-73
2023/01/07 00:50:38;;;;;;;19.30;10.55;;;7.70;99.90;;;;;;7405464;19;19942;-73
2023/01/07 00:53:12;;;;;;;15.43;9.20;;;8.30;99.90;;;;;;7407973;19;20566;-73
2023/01/07 00:55:41;;;;;;;19.27;10.55;;;7.80;99.90;;;;;;7405199;19;19917;-73
2023/01/07 00:58:15;;;;;;;16.70;9.48;;;7.70;99.90;;;;;;7401772;19;19918;-73
2023/01/07 01:00:47;;;;;;;17.75;9.95;;;8.00;99.90;;;;;;7403563;19;19926;-73
2023/01/07 01:03:17;;;;;;;18.33;9.55;;;7.80;99.90;;;;;;7405465;19;19922;-73
2023/01/07 01:05:47;;;;;;;18.73;9.75;;;7.80;99.90;;;;;;7401807;19;19923;-73
2023/01/07 01:08:20;;;;;;;17.40;9.57;;;8.00;99.90;;;;;;7402655;19;19922;-73
2023/01/07 01:10:49;;;;;;;15.88;9.13;;;7.90;99.90;;;;;;7404449;19;19936;-73
2023/01/07 01:13:19;;;;;;;19.83;10.10;;;8.00;99.90;;;;;;7402357;19;19922;-72
2023/01/07 01:15:50;;;;;;;17.00;8.90;;;8.00;99.90;;;;;;7403279;19;19970;-72
2023/01/07 01:18:23;;;;;;;16.48;9.10;;;7.90;99.90;;;;;;7403989;19;19953;-72
2023/01/07 01:20:52;;;;;;;17.08;9.50;;;7.90;99.90;;;;;;7403565;19;19918;-72
2023/01/07 01:23:24;;;;;;;18.90;9.60;;;8.10;99.90;;;;;;7402068;19;19922;-72
2023/01/07 01:25:53;;;;;;;19.48;10.15;;;8.00;99.90;;;;;;7403031;19;19982;-73
2023/01/07 01:28:21;;;;;;;21.33;9.75;;;8.00;99.90;;;;;;7402089;19;19922;-74
2023/01/07 01:30:56;;;;;;;16.90;9.15;;;8.00;99.90;;;;;;7400344;19;20295;-73
2023/01/07 01:33:25;;;;;;;17.27;9.63;;;8.00;99.90;;;;;;7400909;19;19919;-72
2023/01/07 01:35:54;;;;;;;19.77;10.07;;;8.00;99.90;;;;;;7403211;19;20285;-72
2023/01/07 01:38:26;;;;;;;20.50;9.32;;;8.10;99.90;;;;;;7404574;19;19923;-72
2023/01/07 01:40:55;;;;;;;16.92;9.50;;;8.20;99.90;;;;;;7401118;19;20544;-72
2023/01/07 01:43:34;;;;;;;16.77;9.73;;;9.30;99.90;;;;;;7404265;19;19919;-73
2023/01/07 01:46:06;;;;;;;16.58;9.68;;;8.20;99.90;;;;;;7402828;19;19943;-72
2023/01/07 01:48:38;;;;;;;18.45;9.90;;;8.20;99.90;;;;;;7403773;19;19935;-73
2023/01/07 01:51:10;;;;;;;18.35;9.95;;;8.20;99.90;;;;;;7403899;19;19986;-73
2023/01/07 01:53:42;;;;;;;16.95;9.45;;;8.20;99.90;;;;;;7402391;19;19919;-73
2023/01/07 01:56:14;;;;;;;17.00;9.80;;;8.20;99.90;;;;;;7401595;19;20316;-73
2023/01/07 01:58:48;;;;;;;17.15;8.95;;;8.30;99.90;;;;;;7403688;19;19918;-73
2023/01/07 02:01:17;;;;;;;17.00;10.00;;;8.30;99.90;;;;;;7403000;19;19926;-73
2023/01/07 02:03:47;;;;;;;18.00;9.75;;;8.30;99.90;;;;;;7401059;19;19919;-73
2023/01/07 02:06:23;;;;;;;17.30;10.48;;;8.30;99.90;;;;;;7398281;19;20269;-73
2023/01/07 02:08:55;;;;;;;17.80;9.50;;;8.40;99.90;;;;;;7402569;19;19994;-72
2023/01/07 02:11:34;;;;;;;;;;;8.40;99.90;;;;;;7411126;19;20357;-73
2023/01/07 02:14:21;;;;;;;14.60;9.00;;;8.40;99.90;;;;;;7405530;19;19937;-73
2023/01/07 02:17:00;;;;;;;16.10;8.93;;;8.50;99.90;;;;;;7407848;19;19922;-73
2023/01/07 02:19:48;;;;;;;15.27;9.15;;;8.60;99.90;;;;;;7407502;19;21386;-73
2023/01/07 02:22:35;;;;;;;15.57;8.57;;;8.50;99.90;;;;;;7408821;19;19922;-73
2023/01/07 02:25:30;;;;;;;15.45;8.60;;;8.50;99.90;;;;;;7406149;19;19925;-73
2023/01/07 02:28:14;;;;;;;18.92;9.73;;;8.60;99.90;;;;;;7407021;19;19922;-73
2023/01/07 02:31:02;;;;;;;16.48;8.95;;;8.70;99.90;;;;;;7408400;19;19987;-73
2023/01/07 02:33:44;;;;;;;16.80;9.40;;;8.50;99.90;;;;;;7406626;19;19926;-73
2023/01/07 02:36:36;;;;;;;18.38;9.95;;;8.60;99.90;;;;;;7408396;19;19922;-73
2023/01/07 02:39:18;;;;;;;16.92;8.90;;;8.60;99.90;;;;;;7406366;19;20340;-73
2023/01/07 02:41:54;;;;;;;16.27;9.60;;;8.60;99.90;;;;;;7406736;19;19923;-72
2023/01/07 02:44:31;;;;;;;17.48;9.65;;;8.70;99.90;;;;;;7406814;19;20037;-73
2023/01/07 02:47:06;;;;;;;17.55;9.57;;;8.60;99.90;;;;;;7406813;19;19918;-73
2023/01/07 02:49:38;;;;;;;17.95;9.80;;;8.70;99.90;;;;;;7407641;19;19919;-73
2023/01/07 02:52:22;;;;;;;16.17;9.40;;;8.70;99.90;;;;;;7404103;19;19919;-74
2023/01/07 02:54:56;;;;;;;16.25;9.77;;;8.70;99.90;;;;;;7405696;19;19929;-73
2023/01/07 02:57:47;;;;;;;17.83;9.40;;;8.60;99.90;;;;;;7403291;19;19943;-72
2023/01/07 03:00:42;;;;;;;17.05;9.98;;;8.50;99.90;;;;;;7407755;19;19923;-73
2023/01/07 03:03:16;;;;;;;;;;;8.60;99.90;;;;;;7409776;19;20333;-73
2023/01/07 03:06:07;;;;;;;17.17;9.45;;;8.60;99.90;;;;;;7408167;19;19950;-73
2023/01/07 03:08:50;;;;;;;16.77;10.75;;;8.70;99.90;;;;;;7408009;19;19936;-73
2023/01/07 03:11:21;;;;;;;16.55;10.27;;;8.60;99.90;;;;;;7407457;19;19922;-73
2023/01/07 03:13:57;;;;;;;16.25;10.18;;;8.60;99.90;;;;;;7408419;19;19922;-73
2023/01/07 03:16:34;;;;;;;17.63;10.02;;;8.60;99.90;;;;;;7405383;19;19923;-73
2023/01/07 03:19:05;;;;;;;17.48;9.32;;;8.60;99.90;;;;;;7406813;19;19929;-73
2023/01/07 03:21:38;;;;;;;21.13;10.23;;;8.70;99.90;;;;;;7406040;19;19914;-73
2023/01/07 03:24:09;;;;;;;16.10;9.93;;;8.60;99.90;;;;;;7407460;19;19928;-73
2023/01/07 03:26:41;;;;;;;17.13;10.18;;;8.70;99.90;;;;;;7402772;19;19918;-73
2023/01/07 03:29:13;;;;;;;16.10;9.55;;;8.60;99.90;;;;;;7406246;19;19919;-73
2023/01/07 03:31:50;;;;;;;17.85;10.85;;;8.70;99.90;;;;;;7407050;19;19942;-72
2023/01/07 03:34:23;;;;;;;16.25;10.57;;;8.60;99.90;;;;;;7405523;19;19921;-73
2023/01/07 03:36:59;;;;;;;16.38;10.23;;;8.60;99.90;;;;;;7404827;19;20288;-73
2023/01/07 03:39:31;;;;;;;18.92;10.80;;;8.60;99.90;;;;;;7408166;19;20268;-74
2023/01/07 03:44:42;;;;;;;15.73;9.68;;;8.70;99.90;;;;;;7407557;19;19919;-73
2023/01/07 03:47:11;;;;;;;18.02;9.60;;;8.80;99.90;;;;;;7400439;19;19919;-74
2023/01/07 03:49:40;;;;;;;13.20;8.88;;;8.80;99.90;;;;;;7404440;19;19914;-75
2023/01/07 03:52:12;;;;;;;15.90;10.32;;;8.70;99.90;;;;;;7404679;19;19919;-73
2023/01/07 03:54:41;;;;;;;16.60;9.75;;;8.70;99.90;;;;;;7404010;19;19911;-73
2023/01/07 03:57:10;;;;;;;15.32;8.93;;;8.80;99.90;;;;;;7405377;19;19935;-73
2023/01/07 03:59:39;;;;;;;15.25;9.40;;;8.70;99.90;;;;;;7407845;19;20329;-73
2023/01/07 04:02:08;;;;;;;15.48;8.82;;;8.70;99.90;;;;;;7406047;19;19926;-72
2023/01/07 04:04:37;;;;;;;14.55;8.70;;;8.80;99.90;;;;;;7405415;19;19943;-73
2023/01/07 04:07:06;;;;;;;13.98;8.82;;;8.80;99.90;;;;;;7402967;19;19939;-74
2023/01/07 04:09:38;;;;;;;15.05;8.77;;;8.70;99.90;;;;;;7404028;19;19928;-74
2023/01/07 04:12:08;;;;;;;16.38;9.63;;;8.80;99.90;;;;;;7403870;19;19922;-72
2023/01/07 04:14:37;;;;;;;13.68;8.48;;;8.80;99.90;;;;;;7402947;19;19994;-73
2023/01/07 04:17:06;;;;;;;12.98;8.40;;;8.80;99.90;;;;;;7403648;19;20001;-73
2023/01/07 04:19:37;;;;;;;14.25;8.27;;;8.90;99.90;;;;;;7404696;19;19939;-73
2023/01/07 04:22:06;;;;;;;12.52;8.50;;;8.90;99.90;;;;;;7407610;19;19926;-73
2023/01/07 04:24:40;;;;;;;13.23;8.90;;;8.80;99.90;;;;;;7405952;19;19926;-73
2023/01/07 04:27:09;;;;;;;14.35;9.50;;;8.70;99.90;;;;;;7402624;19;19923;-73
2023/01/07 04:29:41;;;;;;;12.48;8.18;;;8.90;99.90;;;;;;7405176;19;19923;-73
2023/01/07 04:32:10;;;;;;;14.68;8.55;;;8.80;99.90;;;;;;7402315;19;19985;-73
2023/01/07 04:34:40;;;;;;;13.73;8.80;;;8.90;99.90;;;;;;7402982;19;19927;-73
2023/01/07 04:37:09;;;;;;;13.68;8.10;;;8.90;99.90;;;;;;7403340;19;19972;-73
2023/01/07 04:39:40;;;;;;;12.93;8.68;;;8.70;99.90;;;;;;7406738;19;19929;-73
2023/01/07 04:42:09;;;;;;;12.95;7.97;;;8.90;99.90;;;;;;7407661;19;19926;-73
2023/01/07 04:44:38;;;;;;;14.07;8.43;;;8.70;99.90;;;;;;7406661;19;19914;-73
2023/01/07 04:47:09;;;;;;;14.77;7.95;;;8.80;99.90;;;;;;7404884;19;19926;-73
2023/01/07 04:49:38;;;;;;;12.73;8.13;;;8.80;99.90;;;;;;7405520;19;19924;-73
2023/01/07 04:52:07;;;;;;;12.45;8.07;;;8.80;99.90;;;;;;7403260;19;19915;-74
2023/01/07 04:54:36;;;;;;;14.35;8.77;;;8.90;99.90;;;;;;7403190;19;19919;-73
2023/01/07 04:57:08;;;;;;;13.98;8.73;;;8.80;99.90;;;;;;7403374;19;19942;-73
2023/01/07 04:59:37;;;;;;;14.77;8.60;;;8.80;99.90;;;;;;7405688;19;19922;-75
2023/01/07 05:02:06;;;;;;;13.27;8.13;;;8.70;99.90;;;;;;7405871;19;20408;-74
2023/01/07 05:04:35;;;;;;;12.13;7.90;;;8.70;99.90;;;;;;7405227;19;20333;-73
2023/01/07 05:07:04;;;;;;;13.70;8.52;;;8.80;99.90;;;;;;7402499;19;19937;-73
2023/01/07 05:09:33;;;;;;;15.43;8.50;;;8.70;99.90;;;;;;7404122;19;19947;-74
2023/01/07 05:12:03;;;;;;;13.65;8.27;;;8.70;99.90;;;;;;7403104;19;20309;-73
2023/01/07 05:14:35;;;;;;;15.40;9.13;;;8.70;99.90;;;;;;7406804;19;19919;-73
2023/01/07 05:17:03;;;;;;;11.80;7.60;;;8.70;99.90;;;;;;7404423;19;20353;-73
2023/01/07 05:19:32;;;;;;;13.57;7.93;;;8.70;99.90;;;;;;7402884;19;19962;-73
2023/01/07 05:22:01;;;;;;;12.52;8.15;;;8.70;99.90;;;;;;7403020;19;19935;-73
2023/01/07 05:24:30;;;;;;;14.63;7.97;;;8.70;99.90;;;;;;7399803;19;19929;-73
2023/01/07 05:26:59;;;;;;;13.65;7.57;;;8.70;99.90;;;;;;7401641;19;19946;-72
2023/01/07 05:29:28;;;;;;;11.55;7.47;;;8.70;99.90;;;;;;7406072;19;19914;-73
2023/01/07 05:32:00;;;;;;;11.20;7.15;;;8.70;99.90;;;;;;7404832;19;19986;-73
2023/01/07 05:34:29;;;;;;;11.07;7.25;;;8.70;99.90;;;;;;7401760;19;19919;-73
2023/01/07 05:36:59;;;;;;;10.55;7.47;;;8.70;99.90;;;;;;7402491;19;19918;-73
2023/01/07 05:39:28;;;;;;;11.35;6.90;;;8.80;99.90;;;;;;7404398;19;19926;-72
2023/01/07 05:41:57;;;;;;;11.57;7.18;;;8.70;99.90;;;;;;7405902;19;20262;-73
2023/01/07 05:44:26;;;;;;;13.50;7.43;;;8.70;99.90;;;;;;7405235;19;19918;-73
2023/01/07 05:46:55;;;;;;;11.00;6.65;;;8.70;99.90;;;;;;7409333;19;19918;-73
2023/01/07 05:49:27;;;;;;;13.30;7.22;;;8.80;99.90;;;;;;7407585;19;19926;-73
2023/01/07 05:51:56;;;;;;;11.52;6.80;;;8.70;99.90;;;;;;7406792;19;20260;-73
2023/01/07 05:54:25;;;;;;;11.20;6.47;;;8.80;99.90;;;;;;7407262;19;19929;-73
2023/01/07 05:56:54;;;;;;;11.40;6.97;;;8.70;99.90;;;;;;7409473;19;19923;-72
2023/01/07 05:59:25;;;;;;;10.68;6.57;;;8.70;99.90;;;;;;7408028;19;19999;-72
2023/01/07 06:01:54;;;;;;;10.20;6.50;;;8.80;99.90;;;;;;7406213;19;19958;-72
2023/01/07 06:04:23;;;;;;;12.60;6.38;;;8.70;99.90;;;;;;7406474;19;20332;-72
2023/01/07 06:06:55;;;;;;;10.60;5.80;;;7.80;99.90;;;;;;7407462;19;19985;-72
2023/01/07 06:09:23;;;;;;;9.05;5.90;;;8.70;99.90;;;;;;7407665;19;20312;-73
2023/01/07 06:11:52;;;;;;;9.18;6.15;;;8.70;99.90;;;;;;7408927;19;19930;-72
2023/01/07 06:14:22;;;;;;;7.72;5.85;;;8.70;99.90;;;;;;7407591;19;19915;-72
2023/01/07 06:17:11;;;;;;;9.63;6.18;;;8.70;99.90;;;;;;7406576;19;19915;-72
2023/01/07 06:20:00;;;;;;;12.35;6.13;;;8.60;99.90;;;;;;7409035;19;19918;-73
2023/01/07 06:22:53;;;;;;;11.90;6.22;;;8.70;99.90;;;;;;7408223;19;19915;-72
2023/01/07 06:25:41;;;;;;;11.07;6.10;;;8.50;99.90;;;;;;7407015;19;19923;-73
2023/01/07 06:28:30;;;;;;;12.45;6.20;;;8.70;99.90;;;;;;7404796;19;19922;-73
2023/01/07 06:30:59;;;;;;;9.38;5.43;;;8.80;99.90;;;;;;7411098;19;19990;-73
2023/01/07 06:33:28;;;;;;;9.13;5.50;;;8.60;99.90;;;;;;7405603;19;19922;-73
2023/01/07 06:35:58;;;;;;;9.75;5.68;;;8.80;99.90;;;;;;7408279;19;19926;-71
2023/01/07 06:38:29;;;;;;;8.70;5.93;;;8.70;99.90;;;;;;7407342;19;19951;-71
2023/01/07 06:41:06;;;;;;;8.75;5.68;;;8.70;99.90;;;;;;7406276;19;19918;-72
2023/01/07 06:43:35;;;;;;;14.55;6.18;;;8.80;99.90;;;;;;7408196;19;19966;-73
2023/01/07 06:46:05;;;;;;;8.32;5.45;;;8.70;99.90;;;;;;7405206;19;19974;-72
2023/01/07 06:48:38;;;;;;;9.55;5.80;;;8.80;99.90;;;;;;7406994;19;19918;-72
2023/01/07 06:51:16;;;;;;;7.82;4.97;;;8.80;99.90;;;;;;7406023;19;19918;-72
2023/01/07 06:53:48;;;;;;;9.57;5.20;;;8.80;99.90;;;;;;7405125;19;19918;-72
2023/01/07 06:56:16;;;;;;;6.50;4.80;;;8.80;99.90;;;;;;7408038;19;19950;-73
2023/01/07 06:58:49;;;;;;;10.15;6.10;;;8.80;99.90;;;;;;7407554;19;20345;-72
2023/01/07 07:01:18;;;;;;;7.20;5.00;;;8.70;99.90;;;;;;7406299;19;19933;-72
2023/01/07 07:03:47;;;;;;;10.25;5.00;;;8.70;99.90;;;;;;7403926;19;19929;-73
2023/01/07 07:06:19;;;;;;;7.68;4.85;;;8.60;99.90;;;;;;7408712;19;19918;-72
2023/01/07 07:08:50;;;;;;;9.65;5.03;;;8.70;99.90;;;;;;7404227;19;19918;-72
2023/01/07 07:11:20;;;;;;;;;;;8.70;99.90;;;;;;7409825;19;19923;-72
2023/01/07 07:13:49;;;;;;;7.07;4.70;;;8.80;99.90;;;;;;7405972;19;19982;-72
2023/01/07 07:16:21;;;;;;;9.00;4.63;;;8.80;99.90;;;;;;7408545;19;19933;-72
2023/01/07 07:18:50;;;;;;;9.10;4.90;;;8.70;99.90;;;;;;7408643;19;20337;-73
2023/01/07 07:21:19;;;;;;;7.28;3.97;;;8.70;99.90;;;;;;7403921;19;19948;-73
2023/01/07 07:23:50;;;;;;;8.68;4.78;;;8.70;99.90;;;;;;7408022;19;19935;-73
2023/01/07 07:26:19;;;;;;;7.90;4.32;;;8.70;99.90;;;;;;7405517;19;19915;-72
2023/01/07 07:28:50;;;;;;;7.18;4.65;;;8.70;99.90;;;;;;7403219;19;20365;-72
2023/01/07 07:31:19;;;;;;;5.82;4.10;;;8.70;99.90;;;;;;7404126;19;19922;-72
2023/01/07 07:33:52;;;;;;;6.78;4.22;;;8.70;99.90;;;;;;7407575;19;20010;-73
2023/01/07 07:36:21;;;;;;;8.20;3.88;;;8.90;99.90;;;;;;7405553;19;19922;-73
2023/01/07 07:38:52;;;;;;;6.43;3.83;;;8.70;99.90;;;;;;7409736;19;19947;-72
2023/01/07 07:41:21;;;;;;;6.90;4.45;;;8.70;99.90;;;;;;7407984;19;19927;-73
2023/01/07 07:43:50;;;;;;;6.05;4.15;;;8.70;99.90;;;;;;7408085;19;19943;-72
2023/01/07 07:46:20;;;;;;;11.68;4.43;;;8.70;99.90;;;;;;7402998;19;19907;-72
2023/01/07 07:48:50;;;;;;;5.32;4.32;;;8.80;99.90;;;;;;7403292;19;19919;-73
2023/01/07 07:51:19;;;;;;;5.55;3.58;;;8.80;99.90;;;;;;7403510;19;20290;-73
2023/01/07 07:53:48;;;;;;;7.53;4.10;;;8.70;99.90;;;;;;7408949;19;19923;-73
2023/01/07 07:56:20;;;;;;;5.53;4.55;;;8.80;99.90;;;;;;7404640;19;19911;-73
2023/01/07 07:58:49;;;;;;;5.53;3.58;;;8.80;99.90;;;;;;7406685;19;19932;-73
2023/01/07 08:01:18;;;;;;;5.30;3.42;;;8.80;99.90;;;;;;7404370;19;19930;-73
2023/01/07 08:03:47;;;;;;;6.70;4.10;;;8.70;99.90;;;;;;7402817;19;19926;-73
2023/01/07 08:06:16;;;;;;;5.47;3.28;;;8.80;99.90;;;;;;7397468;19;20340;-73
2023/01/07 08:08:45;;;;;;;7.00;4.15;;;8.70;99.90;;;;;;7400982;19;20259;-73
2023/01/07 08:11:14;;;;;;;4.57;2.92;;;8.80;99.90;;;;;;7404217;19;19926;-73
2023/01/07 08:13:46;;;;;;;6.10;4.07;;;8.70;99.90;;;;;;7405116;19;19943;-73
2023/01/07 08:16:15;;;;;;;6.75;4.65;;;8.70;99.90;;;;;;7406604;19;19926;-73
2023/01/07 08:18:45;;;;;;;6.05;4.20;;;8.70;99.90;;;;;;7405420;19;19923;-73
2023/01/07 08:21:15;;;;;;;6.82;3.88;;;8.70;99.90;;;;;;7404926;19;19946;-73
2023/01/07 08:23:44;;;;;;;5.38;3.55;;;8.60;99.90;;;;;;7406038;19;19930;-73
2023/01/07 08:26:13;;;;;;;5.53;3.50;;;8.80;99.90;;;;;;7402393;19;19922;-73
2023/01/07 08:28:45;;;;;;;8.30;3.38;;;8.70;99.90;;;;;;7404717;19;19939;-73
2023/01/07 08:31:14;;;;;;;9.57;4.93;;;8.60;99.90;;;;;;7405468;19;19919;-73
2023/01/07 08:33:43;;;;;;;5.70;3.58;;;8.70;99.90;;;;;;7403863;19;20332;-73
2023/01/07 08:36:12;;;;;;;5.80;3.45;;;8.70;99.90;;;;;;7401860;19;19926;-74
2023/01/07 08:38:43;;;;;;;5.75;3.33;;;8.80;99.90;;;;;;7405737;19;20062;-74
2023/01/07 08:41:12;;;;;;;5.95;3.47;;;8.70;99.90;;;;;;7406885;19;19933;-73
2023/01/07 08:43:43;;;;;;;5.30;3.35;;;8.70;99.90;;;;;;7404459;19;19934;-75
2023/01/07 08:46:15;;;;;;;5.55;3.45;;;8.70;99.90;;;;;;7404256;19;19911;-74
2023/01/07 08:48:46;;;;;;;4.68;3.35;;;9.10;99.90;;;;;;7404893;19;19930;-75
2023/01/07 08:51:15;;;;;;;6.20;4.13;;;8.70;99.90;;;;;;7404764;19;20291;-74
2023/01/07 08:53:44;;;;;;;4.88;3.38;;;8.60;99.90;;;;;;7403337;19;19922;-74
2023/01/07 08:56:13;;;;;;;5.22;2.85;;;8.50;99.90;;;;;;7403399;19;19914;-76
2023/01/07 08:58:42;;;;;;;5.18;4.30;;;8.80;99.90;;;;;;7403094;19;19927;-73
2023/01/07 09:01:14;;;;;;;5.63;3.05;;;8.60;99.90;;;;;;7404907;19;20010;-74
2023/01/07 09:03:47;;;;;;;5.53;3.28;;;8.60;99.90;;;;;;7402143;19;20015;-74
2023/01/07 09:06:16;;;;;;;4.38;3.03;;;8.60;99.90;;;;;;7403795;19;19923;-75
2023/01/07 09:08:45;;;;;;;4.72;3.13;;;8.70;99.90;;;;;;7403356;19;20257;-74
2023/01/07 09:11:14;;;;;;;5.63;3.30;;;8.70;99.90;;;;;;7404700;19;19930;-74
2023/01/07 09:13:44;;;;;;;3.88;2.92;;;8.60;99.90;;;;;;7403371;19;19914;-75
2023/01/07 09:16:15;;;;;;;3.08;2.58;;;8.70;99.90;;;;;;7403543;19;19923;-74
2023/01/07 09:18:45;;;;;;;3.50;2.78;;;8.60;99.90;;;;;;7401924;19;19956;-75
2023/01/07 09:21:34;;;;;;;4.25;2.80;;;8.60;99.90;;;;;;7400418;19;19922;-75
2023/01/07 09:24:23;;;;;;;5.15;3.08;;;8.70;99.90;;;;;;7406167;19;19962;-74
2023/01/07 09:26:52;;;;;;;4.40;2.72;;;8.80;99.90;;;;;;7412474;19;19914;-74
2023/01/07 09:29:21;;;;;;;5.72;3.00;;;8.60;99.90;;;;;;7406768;19;19919;-75
2023/01/07 09:31:54;;;;;;;4.88;2.65;;;8.70;99.90;;;;;;7392735;19;20029;-75
2023/01/07 09:34:24;;;;;;;4.35;2.50;;;8.60;99.90;;;;;;7402813;19;20011;-75
2023/01/07 09:36:56;;;;;;;3.88;2.65;;;8.60;99.90;;;;;;7402282;19;19915;-75
2023/01/07 09:39:26;;;;;;;4.22;2.53;;;8.70;99.90;;;;;;7393122;19;19926;-73
2023/01/07 09:42:01;;;;;;;2.60;2.13;;;8.80;99.90;;;;;;7398347;19;19927;-74
2023/01/07 09:44:50;;;;;;;3.05;2.17;;;8.80;99.90;;;;;;7398981;19;19930;-76
2023/01/07 09:47:26;;;;;;;2.67;1.88;;;8.80;99.90;;;;;;7393258;19;19970;-75
2023/01/07 09:50:00;;;;;;;3.70;2.60;;;8.90;99.90;;;;;;7394823;19;19939;-75
2023/01/07 09:52:32;;;;;;;4.07;2.13;;;8.80;99.90;;;;;;7400345;19;19923;-73
2023/01/07 09:55:06;;;;;;;3.65;2.15;;;8.90;99.90;;;;;;7395463;19;19924;-72
2023/01/07 09:57:35;;;;;;;3.65;1.92;;;8.80;99.90;;;;;;7393878;19;20396;-71
2023/01/07 10:00:05;;;;;;;3.90;2.10;;;8.90;99.90;;;;;;7394557;19;19918;-71
2023/01/07 10:02:47;;;;;;;3.85;1.85;;;8.90;99.90;;;;;;7394681;19;19941;-71
2023/01/07 10:05:33;;;;;;;5.18;2.20;;;8.70;99.90;;;;;;7395990;19;20450;-71
2023/01/07 10:08:09;;;;;;;2.17;1.85;;;8.70;99.90;;;;;;7394666;19;19911;-71
2023/01/07 10:10:46;;;;;;;3.05;2.08;;;8.70;99.90;;;;;;7394485;19;19937;-71
2023/01/07 10:13:42;;;;;;;4.40;2.22;;;8.80;99.90;;;;;;7397997;19;19960;-71
2023/01/07 10:16:20;;;;;;;3.85;1.98;;;8.80;99.90;;;;;;7395868;19;19926;-71
2023/01/07 10:19:01;;;;;;;3.67;1.77;;;8.80;99.90;;;;;;7399877;19;19914;-71
2023/01/07 10:21:39;;;;;;;8.18;2.15;;;8.90;99.90;;;;;;7396323;19;19970;-71
2023/01/07 10:24:20;;;;;;;2.35;1.83;;;8.90;99.90;;;;;;7396090;19;19927;-71
2023/01/07 10:26:52;;;;;;;5.35;2.45;;;8.80;99.90;;;;;;7397479;19;19919;-72
2023/01/07 10:29:23;;;;;;;;;;;8.90;99.90;;;;;;7399782;19;19927;-72
2023/01/07 10:31:55;;;;;;;3.00;1.73;;;9.10;99.90;;;;;;7402805;19;19933;-71
2023/01/07 10:34:31;;;;;;;4.18;2.00;;;9.10;99.90;;;;;;7402064;19;20025;-71
2023/01/07 10:37:06;;;;;;;2.60;2.05;;;8.90;99.90;;;;;;7401676;19;19914;-72
2023/01/07 10:39:45;;;;;;;4.97;2.08;;;9.00;99.90;;;;;;7403058;19;20354;-71
2023/01/07 10:42:22;;;;;;;2.60;1.90;;;9.00;99.90;;;;;;7405865;19;19935;-72
2023/01/07 10:45:27;;;;;;;5.53;1.98;;;9.00;99.90;;;;;;7405442;19;19918;-70
2023/01/07 10:48:35;;;;;;;4.07;2.00;;;9.10;99.90;;;;;;7406593;19;20392;-72
2023/01/07 10:51:19;;;;;;;2.20;1.42;;;9.10;99.90;;;;;;7406256;19;19933;-70
2023/01/07 10:53:58;;;;;;;3.35;1.65;;;9.00;99.90;;;;;;7398202;19;19923;-70
2023/01/07 10:56:32;;;;;;;2.50;1.40;;;9.10;99.90;;;;;;7406999;19;19928;-71
2023/01/07 10:59:02;;;;;;;3.58;1.52;;;8.90;99.90;;;;;;7406150;19;19935;-71
2023/01/07 11:01:35;;;;;;;3.08;1.35;;;9.30;99.90;;;;;;7405246;19;19943;-70
2023/01/07 11:04:05;;;;;;;3.65;1.58;;;9.10;99.90;;;;;;7405179;19;19946;-71
2023/01/07 11:06:46;;;;;;;2.83;1.50;;;9.10;99.90;;;;;;7406462;19;20262;-71
2023/01/07 11:09:18;;;;;;;2.33;1.63;;;9.10;99.90;;;;;;7405326;19;19926;-70
2023/01/07 11:11:48;;;;;;;2.17;1.52;;;9.10;99.90;;;;;;7406532;19;19919;-71
2023/01/07 11:14:22;;;;;;;2.78;1.52;;;9.20;99.90;;;;;;7405902;19;19946;-71
2023/01/07 11:16:55;;;;;;;2.53;1.50;;;9.10;99.90;;;;;;7406722;19;20305;-71
2023/01/07 11:19:44;;;;;;;2.20;1.35;;;9.10;99.90;;;;;;7405480;19;19922;-70
2023/01/07 11:22:38;;;;;;;1.60;0.90;;;9.20;99.90;;;;;;7405840;19;19936;-70
2023/01/07 11:25:29;;;;;;;2.67;1.13;;;9.20;99.90;;;;;;7406127;19;19943;-70
2023/01/07 11:28:02;;;;;;;3.55;1.25;;;9.10;99.90;;;;;;7404428;19;19970;-70
2023/01/07 11:30:34;;;;;;;1.45;1.10;;;9.30;99.90;;;;;;7404673;19;19914;-70
2023/01/07 11:33:06;;;;;;;1.55;0.93;;;9.20;99.90;;;;;;7395906;19;19915;-70
2023/01/07 11:35:36;;;;;;;;;;;9.30;99.90;;;;;;7396849;19;19922;-71
2023/01/07 11:38:28;;;;;;;5.72;1.00;;;9.40;99.90;;;;;;7401618;19;19982;-70
2023/01/07 11:40:58;;;;;;;2.53;1.10;;;9.50;99.90;;;;;;7396693;19;20001;-70
2023/01/07 11:43:34;;;;;;;1.88;0.93;;;9.50;99.90;;;;;;7397704;19;19938;-70
2023/01/07 11:46:04;;;;;;;2.25;1.10;;;9.40;99.90;;;;;;7401677;19;20340;-71
2023/01/07 11:48:35;;;;;;;1.95;1.00;;;9.50;99.90;;;;;;7399296;19;20351;-69
2023/01/07 11:51:09;;;;;;;1.23;0.82;;;9.50;99.90;;;;;;7399388;19;19926;-69
2023/01/07 11:53:44;;;;;;;2.00;0.98;;;9.40;99.90;;;;;;7399686;19;19921;-70
2023/01/07 11:56:15;;;;;;;2.78;1.00;;;9.30;99.90;;;;;;7392551;19;19915;-70
2023/01/07 11:58:46;;;;;;;1.52;0.80;;;9.50;99.90;;;;;;7400050;19;19929;-70
2023/01/07 12:01:17;;;;;;;1.83;1.00;;;9.50;99.90;;;;;;7400770;19;19978;-69
2023/01/07 12:04:10;;;;;;;1.73;0.90;;;9.40;99.90;;;;;;7400031;19;20225;-70
2023/01/07 12:06:42;;;;;;;3.00;1.02;;;9.40;99.90;;;;;;7403259;19;20560;-70
2023/01/07 12:09:25;;;;;;;1.35;1.00;;;9.40;99.90;;;;;;7396458;19;19933;-71
2023/01/07 12:11:56;;;;;;;1.83;1.23;;;9.30;99.90;;;;;;7406324;19;20019;-70
2023/01/07 12:14:33;;;;;;;1.73;1.10;;;9.50;99.90;;;;;;7402435;19;19926;-71
2023/01/07 12:17:11;;;;;;;2.55;1.10;;;9.30;99.90;;;;;;7401388;19;19922;-71
2023/01/07 12:19:59;;;;;;;3.55;1.17;;;9.40;99.90;;;;;;7399624;19;19929;-71
2023/01/07 12:22:39;;;;;;;3.03;1.10;;;9.40;99.90;;;;;;7400043;19;20385;-71
2023/01/07 12:25:29;;;;;;;3.00;1.23;;;9.60;99.90;;;;;;7401440;19;19927;-71
2023/01/07 12:28:06;;;;;;;1.67;0.90;;;9.20;99.90;;;;;;7400202;19;19922;-71
2023/01/07 12:30:57;;;;;;;1.80;1.10;;;9.50;99.90;;;;;;7395263;19;19933;-71
2023/01/07 12:33:33;;;;;;;;;;;9.50;99.90;;;;;;7398083;19;19933;-72
2023/01/07 12:36:12;;;;;;;1.98;1.08;;;9.30;99.90;;;;;;7396029;19;19918;-72
2023/01/07 12:38:46;;;;;;;2.20;1.17;;;9.30;99.90;;;;;;7402273;19;19986;-72
2023/01/07 12:41:21;;;;;;;1.35;0.88;;;9.40;99.90;;;;;;7399976;19;19922;-72
2023/01/07 12:44:01;;;;;;;3.17;1.10;;;10.10;99.90;;;;;;7399258;19;20238;-72
2023/01/07 12:46:36;;;;;;;4.13;1.00;;;9.40;99.90;;;;;;7399304;19;19920;-72
2023/01/07 12:49:09;;;;;;;2.15;1.05;;;9.50;99.90;;;;;;7395933;19;20368;-71
2023/01/07 12:51:44;;;;;;;1.48;1.10;;;9.50;99.90;;;;;;7400474;19;19930;-70
2023/01/07 12:54:19;;;;;;;1.50;0.85;;;9.60;99.90;;;;;;7401009;19;20345;-72
2023/01/07 12:56:55;;;;;;;3.55;1.00;;;9.50;99.90;;;;;;7401812;19;19911;-72
2023/01/07 12:59:28;;;;;;;2.22;0.95;;;9.70;99.90;;;;;;7399345;19;19914;-72
2023/01/07 13:02:10;;;;;;;1.08;0.90;;;9.70;99.90;;;;;;7396551;19;19959;-70
2023/01/07 13:04:51;;;;;;;1.25;0.70;;;9.60;99.90;;;;;;7399888;19;20344;-71
2023/01/07 13:07:26;;;;;;;2.10;1.10;;;9.70;99.90;;;;;;7400699;19;20312;-71
2023/01/07 13:10:00;;;;;;;2.08;1.10;;;9.90;99.90;;;;;;7399906;19;20351;-70
2023/01/07 13:12:47;;;;;;;7.25;3.95;;;9.80;99.90;;;;;;7398898;19;19922;-71
2023/01/07 13:15:25;;;;;;;1.48;1.00;;;9.90;99.90;;;;;;7400476;19;19929;-72
2023/01/07 13:17:56;;;;;;;1.63;1.30;;;10.00;99.90;;;;;;7399289;19;19930;-71
2023/01/07 13:20:47;;;;;;;;;;;10.00;99.90;;;;;;7403323;19;19922;-71
2023/01/07 13:23:22;;;;;;;1.42;0.98;;;9.90;99.90;;;;;;7397547;19;19939;-73
2023/01/07 13:26:03;;;;;;;4.68;1.33;;;9.80;99.90;;;;;;7399659;19;19946;-72
2023/01/07 13:28:57;;;;;;;2.55;0.80;;;9.90;99.90;;;;;;7395185;19;19937;-71